Time;durP1;ratioP1;P1;durP2;ratioP2;P2;SDS_P1;SDS_P2;PMS_P1;PMS_P2;Temp;Humidity;BMP_temperature;BMP_pressure;BME280_temperature;BME280_humidity;BME280_pressure;Samples;Min_cycle;Max_cycle;Signal;HPM_P1;HPM_P2
2021/11/11 00:01:52;;;;;;;20.38;10.27;;;;;;;-0.87;100.00;95998.09;5020045;28;20487;-78
2021/11/11 00:04:20;;;;;;;19.02;9.77;;;;;;;-0.93;100.00;95999.63;5032128;28;20491;-78
2021/11/11 00:06:47;;;;;;;23.73;10.45;;;;;;;-0.93;100.00;95994.44;5031033;28;20037;-78
2021/11/11 00:09:13;;;;;;;21.90;10.85;;;;;;;-0.84;100.00;95991.75;5032526;28;20049;-78
2021/11/11 00:11:40;;;;;;;22.35;10.80;;;;;;;-0.88;100.00;95997.28;5032069;28;20041;-78
2021/11/11 00:14:06;;;;;;;23.48;10.70;;;;;;;-0.91;100.00;95992.47;5032796;28;20049;-78
2021/11/11 00:16:32;;;;;;;25.35;10.25;;;;;;;-0.95;100.00;95991.28;5031097;28;20044;-78
2021/11/11 00:18:58;;;;;;;22.52;10.05;;;;;;;-1.02;100.00;95990.41;5032724;28;20144;-78
2021/11/11 00:21:24;;;;;;;21.05;10.80;;;;;;;-0.97;100.00;95980.31;5031739;28;20045;-78
2021/11/11 00:23:49;;;;;;;22.48;10.95;;;;;;;-1.03;100.00;95986.22;5010954;28;20068;-77
2021/11/11 00:26:15;;;;;;;20.90;9.75;;;;;;;-0.91;100.00;95992.47;5025461;28;20046;-77
2021/11/11 00:28:40;;;;;;;20.42;10.63;;;;;;;-0.94;100.00;95992.84;5032090;28;20049;-78
2021/11/11 00:31:06;;;;;;;19.70;9.98;;;;;;;-1.14;100.00;95986.69;5032090;28;20054;-79
2021/11/11 00:33:32;;;;;;;19.55;9.93;;;;;;;-1.14;100.00;95992.66;5031924;28;20075;-78
2021/11/11 00:35:57;;;;;;;23.75;10.90;;;;;;;-1.20;100.00;95998.56;5030157;28;20034;-78
2021/11/11 00:38:23;;;;;;;21.05;10.20;;;;;;;-1.22;100.00;95996.16;5030933;28;20047;-78
2021/11/11 00:40:49;;;;;;;24.80;11.30;;;;;;;-1.18;100.00;95995.78;5031971;28;20037;-78
2021/11/11 00:43:15;;;;;;;23.70;9.85;;;;;;;-1.11;100.00;96001.81;5017782;28;20133;-77
2021/11/11 00:45:40;;;;;;;28.83;11.05;;;;;;;-1.33;100.00;95994.06;5030287;28;20041;-77
2021/11/11 00:48:07;;;;;;;23.52;11.60;;;;;;;-1.55;100.00;95997.56;5046738;28;20057;-78
2021/11/11 00:50:34;;;;;;;22.67;11.25;;;;;;;-1.46;100.00;95999.06;5031011;28;20072;-78
2021/11/11 00:53:01;;;;;;;22.10;10.50;;;;;;;-1.29;100.00;95995.28;5021289;28;20038;-78
2021/11/11 00:55:27;;;;;;;24.27;10.63;;;;;;;-1.25;100.00;95988.78;5020592;28;20045;-78
2021/11/11 00:57:53;;;;;;;21.65;10.50;;;;;;;-1.21;100.00;95981.47;5030645;28;20094;-77
2021/11/11 01:00:21;;;;;;;18.70;10.60;;;;;;;-1.25;100.00;95996.53;5030006;28;20042;-77
2021/11/11 01:02:48;;;;;;;24.58;10.63;;;;;;;-1.43;100.00;95983.22;5027035;28;20046;-77
2021/11/11 01:05:15;;;;;;;24.42;11.00;;;;;;;-1.49;100.00;95978.78;5011548;28;20101;-77
2021/11/11 01:07:41;;;;;;;22.55;10.73;;;;;;;-1.66;100.00;95973.81;5023384;28;20446;-77
2021/11/11 01:10:10;;;;;;;19.33;10.32;;;;;;;-1.74;100.00;95971.34;5029602;28;20042;-78
2021/11/11 01:12:36;;;;;;;23.40;11.35;;;;;;;-1.61;100.00;95976.69;5030347;28;20477;-77
2021/11/11 01:15:03;;;;;;;24.15;10.88;;;;;;;-1.48;100.00;95985.53;5029823;28;20042;-77
2021/11/11 01:17:29;;;;;;;21.65;9.88;;;;;;;-1.63;100.00;95988.94;5039486;28;20042;-78
2021/11/11 01:19:54;;;;;;;21.50;10.38;;;;;;;-1.61;100.00;95997.31;5029843;28;20048;-77
2021/11/11 01:22:20;;;;;;;22.08;10.48;;;;;;;-1.35;100.00;95983.13;5022867;28;20053;-78
2021/11/11 01:24:46;;;;;;;22.02;9.68;;;;;;;-1.37;100.00;95992.81;5015028;28;20575;-78
2021/11/11 01:27:11;;;;;;;18.55;9.40;;;;;;;-1.42;100.00;96005.47;5019168;28;20091;-78
2021/11/11 01:29:37;;;;;;;19.20;9.52;;;;;;;-1.51;100.00;96001.41;5045534;28;20523;-77
2021/11/11 01:32:03;;;;;;;20.83;11.07;;;;;;;-1.70;100.00;95997.59;5038796;28;20744;-78
2021/11/11 01:34:28;;;;;;;19.35;10.35;;;;;;;-1.82;100.00;95990.31;5010063;28;20072;-77
2021/11/11 01:36:55;;;;;;;21.30;9.75;;;;;;;-1.73;100.00;95988.44;5019619;28;20120;-78
2021/11/11 01:39:22;;;;;;;21.17;9.65;;;;;;;-1.75;100.00;95995.56;5030742;28;20049;-77
2021/11/11 01:41:48;;;;;;;20.80;10.02;;;;;;;-1.85;100.00;95995.00;5026596;28;20038;-78
2021/11/11 01:44:17;;;;;;;22.33;9.85;;;;;;;-1.75;100.00;95990.41;5017639;28;20515;-77
2021/11/11 01:46:43;;;;;;;21.02;9.70;;;;;;;-1.52;100.00;95989.47;5028298;28;20064;-77
2021/11/11 01:49:08;;;;;;;19.10;9.20;;;;;;;-1.45;100.00;95992.91;5028039;28;20145;-77
2021/11/11 01:51:34;;;;;;;18.02;9.27;;;;;;;-1.48;100.00;95978.59;5029455;28;20473;-78
2021/11/11 01:54:00;;;;;;;16.77;8.70;;;;;;;-1.40;100.00;95975.09;5018865;28;20117;-78
2021/11/11 01:56:26;;;;;;;24.80;9.10;;;;;;;-1.54;100.00;95970.78;5028604;28;20052;-78
2021/11/11 01:58:52;;;;;;;18.45;9.50;;;;;;;-1.69;100.00;95963.88;5029544;28;20045;-78
2021/11/11 02:01:20;;;;;;;17.88;8.93;;;;;;;-1.72;100.00;95971.97;5029408;28;20056;-78
2021/11/11 02:03:46;;;;;;;21.90;9.95;;;;;;;-1.93;100.00;95952.84;5009518;28;20049;-78
2021/11/11 02:06:12;;;;;;;28.55;9.93;;;;;;;-2.01;100.00;95960.72;5024061;28;20042;-77
2021/11/11 02:08:38;;;;;;;23.27;9.60;;;;;;;-1.80;100.00;95957.38;5030047;28;20045;-78
2021/11/11 02:11:04;;;;;;;18.67;9.00;;;;;;;-1.76;100.00;95957.84;5028385;28;20053;-77
2021/11/11 02:13:30;;;;;;;21.15;9.48;;;;;;;-1.75;100.00;95954.28;5028536;28;20045;-78
2021/11/11 02:15:56;;;;;;;18.23;9.10;;;;;;;-1.63;100.00;95947.66;5028665;28;20056;-77
2021/11/11 02:18:21;;;;;;;21.40;9.68;;;;;;;-1.72;100.00;95948.75;5029280;28;20049;-78
2021/11/11 02:20:47;;;;;;;20.90;9.80;;;;;;;-1.74;100.00;95945.53;5029372;28;20045;-78
2021/11/11 02:23:16;;;;;;;21.42;9.23;;;;;;;-1.64;100.00;95940.91;5014207;28;20050;-77
2021/11/11 02:25:41;;;;;;;18.30;9.18;;;;;;;-1.66;100.00;95937.69;5025831;28;20087;-78
2021/11/11 02:28:10;;;;;;;18.00;8.98;;;;;;;-1.70;100.00;95941.63;5027900;28;20045;-78
2021/11/11 02:30:38;;;;;;;18.88;8.82;;;;;;;-1.77;100.00;95940.75;5029572;28;20041;-78
2021/11/11 02:33:12;;;;;;;17.25;8.50;;;;;;;-1.87;100.00;95940.22;5027638;28;20487;-78
2021/11/11 02:35:38;;;;;;;17.40;9.23;;;;;;;-2.03;100.00;95949.75;5026656;28;20034;-78
2021/11/11 02:38:05;;;;;;;20.88;9.55;;;;;;;-2.14;100.00;95950.19;5029850;28;20052;-78
2021/11/11 02:40:31;;;;;;;22.35;10.55;;;;;;;-2.25;100.00;95932.63;5029072;28;20517;-77
2021/11/11 02:42:57;;;;;;;25.67;10.65;;;;;;;-2.14;100.00;95939.88;5022925;28;20100;-78
2021/11/11 02:45:28;;;;;;;21.65;10.75;;;;;;;-2.11;100.00;95934.41;5023272;28;20049;-78
2021/11/11 02:47:55;;;;;;;19.85;10.05;;;;;;;-2.15;100.00;95933.16;5028688;28;20068;-78
2021/11/11 02:50:21;;;;;;;18.95;9.52;;;;;;;-2.08;100.00;95939.19;5036405;28;20041;-77
2021/11/11 02:52:49;;;;;;;21.60;9.10;;;;;;;-2.09;100.00;95937.59;5043183;28;20418;-78
2021/11/11 02:55:15;;;;;;;16.65;8.77;;;;;;;-1.93;100.00;95932.22;5017501;28;20045;-78
2021/11/11 02:57:43;;;;;;;19.48;9.50;;;;;;;-1.92;100.00;95933.81;5028840;28;20045;-78
2021/11/11 03:00:17;;;;;;;17.85;9.70;;;;;;;-1.97;100.00;95933.59;5031331;28;20052;-78
2021/11/11 03:02:44;;;;;;;21.30;9.40;;;;;;;-1.92;100.00;95926.09;5030483;28;20045;-78
2021/11/11 03:05:13;;;;;;;20.75;9.07;;;;;;;-2.00;100.00;95925.38;5019551;28;20050;-77
2021/11/11 03:07:39;;;;;;;23.58;9.68;;;;;;;-2.02;100.00;95932.53;5032814;28;20574;-78
2021/11/11 03:10:07;;;;;;;20.35;9.77;;;;;;;-1.82;100.00;95927.59;5031375;28;20096;-78
2021/11/11 03:12:32;;;;;;;16.77;8.88;;;;;;;-1.64;100.00;95935.75;5025713;28;20034;-78
2021/11/11 03:14:59;;;;;;;20.83;9.30;;;;;;;-1.88;100.00;95943.78;5016662;28;20048;-78
2021/11/11 03:17:25;;;;;;;19.92;9.73;;;;;;;-2.08;100.00;95946.94;5032907;28;20064;-78
2021/11/11 03:19:51;;;;;;;19.95;9.48;;;;;;;-2.10;100.00;95951.44;5031138;28;20503;-78
2021/11/11 03:22:20;;;;;;;15.88;8.55;;;;;;;-2.00;100.00;95959.72;5032101;28;20042;-77
2021/11/11 03:24:48;;;;;;;15.75;8.93;;;;;;;-1.90;100.00;95961.22;5024571;28;20045;-77
2021/11/11 03:27:15;;;;;;;19.63;9.30;;;;;;;-1.98;100.00;95955.19;5021731;28;20070;-77
2021/11/11 03:29:41;;;;;;;17.00;8.43;;;;;;;-1.82;100.00;95961.13;5033054;28;20049;-78
2021/11/11 03:32:07;;;;;;;17.05;8.57;;;;;;;-1.67;100.00;95958.53;5032277;28;20045;-77
2021/11/11 03:34:33;;;;;;;28.42;9.30;;;;;;;-1.62;100.00;95954.44;5021910;28;20049;-77
2021/11/11 03:37:00;;;;;;;17.27;8.80;;;;;;;-1.48;100.00;95964.88;5031246;28;20041;-77
2021/11/11 03:39:26;;;;;;;22.15;8.88;;;;;;;-1.58;100.00;95958.25;5031755;28;20049;-77
2021/11/11 03:41:52;;;;;;;15.18;7.90;;;;;;;-1.72;100.00;95969.41;5032064;28;20047;-78
2021/11/11 03:44:19;;;;;;;17.48;8.45;;;;;;;-1.80;100.00;95972.06;5032035;28;20471;-77
2021/11/11 03:46:52;;;;;;;17.23;8.00;;;;;;;-1.86;100.00;95968.44;5021183;28;20057;-77
2021/11/11 03:49:17;;;;;;;19.10;9.00;;;;;;;-1.61;100.00;95971.53;5021808;28;20068;-77
2021/11/11 03:51:45;;;;;;;20.13;8.52;;;;;;;-1.64;100.00;95966.72;5031944;28;20045;-78
2021/11/11 03:54:13;;;;;;;16.75;8.52;;;;;;;-1.67;100.00;95968.84;5022851;28;20046;-77
2021/11/11 03:56:41;;;;;;;16.80;8.02;;;;;;;-1.81;100.00;95970.47;5016300;28;20038;-77
2021/11/11 03:59:07;;;;;;;17.88;8.65;;;;;;;-1.96;100.00;95968.69;5031491;28;20113;-78
2021/11/11 04:01:33;;;;;;;16.27;8.18;;;;;;;-1.89;100.00;95968.78;5031382;28;20649;-78
2021/11/11 04:03:59;;;;;;;16.63;8.38;;;;;;;-1.83;100.00;95977.59;5031488;28;20041;-78
2021/11/11 04:06:24;;;;;;;16.42;7.97;;;;;;;-1.78;100.00;95975.25;5029235;28;20503;-77
2021/11/11 04:08:50;;;;;;;13.68;7.72;;;;;;;-1.79;100.00;95978.84;5012078;28;20447;-77
2021/11/11 04:11:16;;;;;;;16.23;8.02;;;;;;;-1.86;100.00;95976.16;5021420;28;20045;-78
2021/11/11 04:13:41;;;;;;;16.25;8.00;;;;;;;-1.71;100.00;95971.00;5031566;28;20041;-78
2021/11/11 04:16:07;;;;;;;16.65;7.97;;;;;;;-1.81;100.00;95965.31;5026678;28;20101;-78
2021/11/11 04:18:33;;;;;;;16.45;8.38;;;;;;;-1.84;100.00;95970.81;5022626;28;20049;-77
2021/11/11 04:21:00;;;;;;;16.65;8.50;;;;;;;-1.81;100.00;95980.78;5031626;28;20060;-78
2021/11/11 04:23:26;;;;;;;16.17;7.75;;;;;;;-1.80;100.00;95983.19;5029805;28;20767;-78
2021/11/11 04:26:08;;;;;;;16.00;7.22;;;;;;;-1.81;100.00;95991.09;5031412;28;20050;-77
2021/11/11 04:28:42;;;;;;;19.25;7.68;;;;;;;-1.69;100.00;95989.69;5031742;28;20068;-78
2021/11/11 04:31:16;;;;;;;15.35;7.63;;;;;;;-1.71;100.00;95996.81;5024888;28;20041;-77
2021/11/11 04:33:43;;;;;;;21.25;8.10;;;;;;;-1.71;100.00;95985.66;5010956;28;20438;-77
2021/11/11 04:39:35;;;;;;;16.70;7.53;;;;;;;-1.54;100.00;95988.84;5009945;28;20069;-77
2021/11/11 05:05:28;;;;;;;19.38;9.27;;;;;;;-1.54;100.00;96006.91;5029545;28;20113;-77
2021/11/11 05:07:55;;;;;;;27.48;10.70;;;;;;;-1.46;100.00;95999.06;5027920;28;20072;-77
2021/11/11 05:10:21;;;;;;;19.52;9.70;;;;;;;-1.46;100.00;96004.25;5028492;28;20038;-77
2021/11/11 05:12:47;;;;;;;20.23;9.18;;;;;;;-1.42;100.00;96001.09;5030440;28;20045;-78
2021/11/11 05:15:14;;;;;;;20.70;9.32;;;;;;;-1.24;100.00;95998.13;5028349;28;20095;-77
2021/11/11 05:17:42;;;;;;;20.85;9.45;;;;;;;-1.15;100.00;95995.41;5029806;28;20518;-78
2021/11/11 05:20:09;;;;;;;18.98;9.27;;;;;;;-1.15;100.00;96000.59;5030036;28;20041;-78
2021/11/11 05:22:34;;;;;;;23.58;9.30;;;;;;;-1.34;100.00;96007.94;5019654;28;20136;-78
2021/11/11 05:25:00;;;;;;;23.92;9.95;;;;;;;-1.16;100.00;95999.00;5028943;28;20504;-78
2021/11/11 05:27:27;;;;;;;30.05;12.35;;;;;;;-1.25;100.00;95996.53;5029238;28;20063;-78
2021/11/11 05:29:53;;;;;;;27.60;11.85;;;;;;;-1.20;100.00;96008.09;5028185;28;20124;-78
2021/11/11 05:32:19;;;;;;;21.52;9.85;;;;;;;-1.10;100.00;96024.09;5029951;28;20534;-78
2021/11/11 05:34:45;;;;;;;22.00;9.85;;;;;;;-0.96;100.00;96025.84;5029591;28;20056;-78
2021/11/11 05:37:12;;;;;;;29.70;10.48;;;;;;;-1.12;100.00;96020.88;5028141;28;20050;-78
2021/11/11 05:39:38;;;;;;;24.95;9.32;;;;;;;-1.05;100.00;96016.59;5029792;28;20044;-78
2021/11/11 05:42:04;;;;;;;24.13;10.50;;;;;;;-1.13;100.00;96004.59;5029455;28;20071;-78
2021/11/11 05:44:30;;;;;;;22.65;9.75;;;;;;;-1.15;100.00;96013.50;5027462;28;20050;-78
2021/11/11 05:46:56;;;;;;;21.40;9.65;;;;;;;-1.11;100.00;96018.13;5013773;28;20042;-78
2021/11/11 05:49:23;;;;;;;28.27;9.60;;;;;;;-0.94;100.00;96023.84;5029223;28;20052;-78
2021/11/11 05:51:50;;;;;;;19.58;9.80;;;;;;;-1.05;100.00;96026.91;5029513;28;20488;-78
2021/11/11 05:54:16;;;;;;;19.33;9.38;;;;;;;-1.05;100.00;96032.09;5028872;28;20073;-78
2021/11/11 05:56:41;;;;;;;18.60;10.30;;;;;;;-1.40;100.00;96024.16;5027453;28;20075;-78
2021/11/11 05:59:07;;;;;;;24.83;9.20;;;;;;;-1.43;100.00;96029.69;5028753;28;20037;-78
2021/11/11 06:01:33;;;;;;;23.92;9.63;;;;;;;-1.48;100.00;96029.41;5028960;28;20057;-78
2021/11/11 06:03:59;;;;;;;21.42;9.32;;;;;;;-1.43;100.00;96025.31;5028648;28;20050;-78
2021/11/11 06:06:29;;;;;;;17.65;8.70;;;;;;;-1.48;100.00;96030.25;5028502;28;20415;-78
2021/11/11 06:08:55;;;;;;;15.60;8.18;;;;;;;-1.52;100.00;96031.56;5027942;28;20056;-78
2021/11/11 06:11:20;;;;;;;17.60;8.25;;;;;;;-1.45;100.00;96031.63;5028948;28;20051;-78
2021/11/11 06:13:47;;;;;;;18.33;7.78;;;;;;;-1.33;100.00;96032.78;5022054;28;20153;-78
2021/11/11 06:16:13;;;;;;;15.20;8.05;;;;;;;-1.30;100.00;96039.38;5013224;28;20534;-78
2021/11/11 06:18:39;;;;;;;15.30;7.68;;;;;;;-1.46;100.00;96025.69;5025424;28;20065;-78
2021/11/11 06:21:05;;;;;;;14.98;7.60;;;;;;;-1.46;100.00;96024.91;5028735;28;20052;-78
2021/11/11 06:23:33;;;;;;;14.63;7.07;;;;;;;-1.46;100.00;96020.53;5043110;28;20432;-78
2021/11/11 06:25:58;;;;;;;22.02;7.45;;;;;;;-1.38;100.00;96022.19;5021146;28;20554;-78
2021/11/11 06:28:24;;;;;;;15.30;7.95;;;;;;;-1.53;100.00;96022.22;5027677;28;20454;-78
2021/11/11 06:30:50;;;;;;;16.27;7.78;;;;;;;-1.58;100.00;96033.09;5028046;28;20038;-78
2021/11/11 06:33:16;;;;;;;14.55;8.07;;;;;;;-1.75;100.00;96036.84;5027114;28;20045;-78
2021/11/11 06:35:42;;;;;;;21.48;9.13;;;;;;;-1.78;100.00;96047.50;5046710;28;20640;-78
2021/11/11 06:38:08;;;;;;;24.17;9.65;;;;;;;-1.78;100.00;96047.50;5037580;28;20047;-77
2021/11/11 06:40:34;;;;;;;20.98;8.30;;;;;;;-1.63;100.00;96050.88;5030744;28;20042;-78
2021/11/11 06:43:02;;;;;;;16.58;8.15;;;;;;;-1.62;100.00;96052.50;5022164;28;20033;-78
2021/11/11 06:45:33;;;;;;;17.88;8.15;;;;;;;-1.44;100.00;96064.22;5032711;28;20042;-78
2021/11/11 06:47:59;;;;;;;21.73;8.43;;;;;;;-1.32;100.00;96055.06;5032098;28;20044;-78
2021/11/11 06:50:25;;;;;;;14.23;7.32;;;;;;;-1.48;100.00;96047.50;5031046;28;20489;-76
2021/11/11 06:52:50;;;;;;;19.52;8.55;;;;;;;-1.37;100.00;96059.94;5030465;28;20040;-77
2021/11/11 06:55:16;;;;;;;16.02;8.15;;;;;;;-1.16;100.00;96068.75;5032046;28;20046;-77
2021/11/11 06:57:42;;;;;;;15.10;7.68;;;;;;;-1.16;100.00;96068.75;5030666;28;20069;-77
2021/11/11 07:00:10;;;;;;;16.13;8.30;;;;;;;-1.27;100.00;96070.00;5030671;28;20045;-78
2021/11/11 07:02:35;;;;;;;17.25;8.48;;;;;;;-1.37;100.00;96054.78;5030296;28;20048;-77
2021/11/11 07:05:02;;;;;;;15.30;8.10;;;;;;;-1.31;100.00;96048.88;5032046;28;20041;-78
2021/11/11 07:07:27;;;;;;;16.23;8.57;;;;;;;-1.44;100.00;96038.41;5029937;28;20049;-78
2021/11/11 07:09:53;;;;;;;16.70;7.78;;;;;;;-1.48;100.00;96052.66;5033020;28;20521;-77
2021/11/11 07:12:19;;;;;;;17.00;7.93;;;;;;;-1.42;100.00;96046.78;5031885;28;20542;-77
2021/11/11 07:14:45;;;;;;;16.20;7.43;;;;;;;-1.40;100.00;96049.97;5032910;28;20041;-77
2021/11/11 07:17:10;;;;;;;21.13;8.45;;;;;;;-1.32;100.00;96052.47;5029451;28;20050;-77
2021/11/11 07:19:36;;;;;;;15.95;8.30;;;;;;;-1.46;100.00;96050.72;5024322;28;20064;-77
2021/11/11 07:22:03;;;;;;;19.23;9.10;;;;;;;-1.42;100.00;96057.13;5012189;28;20093;-76
2021/11/11 07:24:30;;;;;;;19.17;8.25;;;;;;;-1.19;100.00;96061.34;5017599;28;20121;-77
2021/11/11 07:26:56;;;;;;;15.95;7.82;;;;;;;-1.10;100.00;96071.38;5028530;28;20087;-77
2021/11/11 07:29:22;;;;;;;14.95;7.38;;;;;;;-1.05;100.00;96078.59;5038194;28;20099;-78
2021/11/11 07:31:52;;;;;;;17.52;8.00;;;;;;;-0.96;100.00;96082.69;5011610;28;20172;-77
2021/11/11 07:34:22;;;;;;;16.67;8.50;;;;;;;-0.92;100.00;96089.09;5030397;28;20117;-77
2021/11/11 07:36:48;;;;;;;17.25;8.40;;;;;;;-0.93;100.00;96091.84;5031696;28;20053;-78
2021/11/11 07:39:15;;;;;;;20.83;9.77;;;;;;;-1.08;100.00;96082.34;5024525;28;20103;-77
2021/11/11 07:41:44;;;;;;;18.83;8.60;;;;;;;-1.04;100.00;96090.53;5016583;28;20053;-78
2021/11/11 07:44:10;;;;;;;22.13;8.57;;;;;;;-1.01;100.00;96100.50;5033362;28;20132;-78
2021/11/11 07:46:38;;;;;;;18.70;8.68;;;;;;;-0.63;100.00;96102.91;5028176;28;20067;-78
2021/11/11 07:49:04;;;;;;;15.35;8.43;;;;;;;-0.29;100.00;96093.63;5028758;28;20061;-78
2021/11/11 07:51:30;;;;;;;14.35;7.70;;;;;;;-0.21;100.00;96101.28;5032281;28;20193;-78
2021/11/11 07:53:58;;;;;;;19.45;8.02;;;;;;;-0.14;100.00;96100.53;5031635;28;20037;-78
2021/11/11 07:56:24;;;;;;;14.18;7.50;;;;;;;-0.04;100.00;96101.03;5030956;28;20057;-78
2021/11/11 07:58:51;;;;;;;17.67;7.90;;;;;;;-0.09;100.00;96103.34;5046632;28;20037;-77
2021/11/11 08:01:17;;;;;;;14.88;7.72;;;;;;;-0.20;100.00;96092.53;5022533;28;20041;-77
2021/11/11 08:03:43;;;;;;;14.45;7.20;;;;;;;0.05;100.00;96093.91;5028026;28;20466;-77
2021/11/11 08:06:09;;;;;;;13.90;7.28;;;;;;;0.39;100.00;96095.72;5028150;28;20115;-77
2021/11/11 08:08:34;;;;;;;13.57;7.85;;;;;;;0.44;100.00;96093.34;5046913;28;20081;-77
2021/11/11 08:11:01;;;;;;;14.38;7.05;;;;;;;0.35;100.00;96097.09;5031280;28;20049;-77
2021/11/11 08:13:27;;;;;;;12.70;7.78;;;;;;;0.35;100.00;96094.50;5029838;28;20056;-78
2021/11/11 08:15:53;;;;;;;13.23;7.60;;;;;;;0.49;100.00;96091.00;5047382;28;20042;-78
2021/11/11 08:18:19;;;;;;;13.18;7.63;;;;;;;0.80;100.00;96081.97;5029188;28;20073;-77
2021/11/11 08:20:46;;;;;;;14.75;8.52;;;;;;;0.90;100.00;96096.38;5020155;28;20054;-78
2021/11/11 08:23:12;;;;;;;17.45;9.45;;;;;;;0.84;100.00;96090.97;5023421;28;20048;-78
2021/11/11 08:25:38;;;;;;;14.77;8.23;;;;;;;0.92;100.00;96094.38;5014781;28;20042;-78
2021/11/11 08:28:03;;;;;;;14.68;7.85;;;;;;;1.20;100.00;96095.06;5025667;28;20046;-78
2021/11/11 08:30:29;;;;;;;15.25;8.07;;;;;;;1.54;100.00;96087.38;5031207;28;20474;-77
2021/11/11 08:32:55;;;;;;;17.52;8.43;;;;;;;1.77;100.00;96081.81;5029443;28;20045;-77
2021/11/11 08:35:23;;;;;;;16.23;8.15;;;;;;;1.97;100.00;96076.59;5028602;28;20653;-77
2021/11/11 08:37:49;;;;;;;16.40;7.68;;;;;;;2.13;100.00;96064.22;5030848;28;20081;-77
2021/11/11 08:40:17;;;;;;;15.07;7.53;;;;;;;2.25;100.00;96063.38;5032645;28;20041;-78
2021/11/11 08:42:49;;;;;;;16.17;7.55;;;;;;;2.40;100.00;96060.56;5031621;28;20581;-78
2021/11/11 08:45:15;;;;;;;12.60;7.10;;;;;;;2.58;100.00;96062.50;5030760;28;20220;-78
2021/11/11 08:47:41;;;;;;;18.17;8.30;;;;;;;2.67;100.00;96059.69;5025550;28;20096;-78
2021/11/11 08:50:08;;;;;;;14.95;8.05;;;;;;;2.66;100.00;96055.47;5020554;28;20058;-77
2021/11/11 08:52:35;;;;;;;17.73;9.45;;;;;;;2.63;100.00;96063.69;5014793;28;20050;-78
2021/11/11 08:55:01;;;;;;;21.33;10.65;;;;;;;2.70;100.00;96059.25;5023759;28;20056;-76
2021/11/11 08:57:27;;;;;;;22.05;10.85;;;;;;;2.80;100.00;96059.63;5012848;28;20046;-76
2021/11/11 08:59:55;;;;;;;21.30;11.25;;;;;;;2.93;100.00;96063.97;5022014;28;20158;-76
2021/11/11 09:02:23;;;;;;;23.85;12.75;;;;;;;3.09;100.00;96073.13;5013915;28;20061;-76
2021/11/11 09:04:49;;;;;;;25.05;12.18;;;;;;;3.20;100.00;96075.03;5028005;28;20080;-77
2021/11/11 09:07:16;;;;;;;25.70;12.55;;;;;;;3.40;100.00;96069.72;5019900;28;20124;-76
2021/11/11 09:09:45;;;;;;;25.88;13.25;;;;;;;3.50;100.00;96071.88;5009924;28;20064;-76
2021/11/11 09:12:17;;;;;;;24.15;12.70;;;;;;;3.73;100.00;96067.91;5027704;28;20048;-75
2021/11/11 09:14:53;;;;;;;25.02;12.82;;;;;;;3.81;100.00;96065.06;5038581;28;20064;-76
2021/11/11 09:17:19;;;;;;;23.88;12.60;;;;;;;3.86;100.00;96070.41;5024986;28;20045;-76
2021/11/11 09:19:44;;;;;;;24.75;12.40;;;;;;;3.96;100.00;96065.50;5028424;28;20128;-76
2021/11/11 09:22:10;;;;;;;28.23;12.85;;;;;;;4.05;100.00;96070.47;5023017;28;20551;-75
2021/11/11 09:24:36;;;;;;;24.30;12.48;;;;;;;4.29;99.78;96064.41;5028000;28;20051;-76
2021/11/11 09:27:02;;;;;;;26.48;13.73;;;;;;;4.44;99.04;96074.50;5023501;28;20037;-76
2021/11/11 09:29:28;;;;;;;25.40;13.38;;;;;;;4.92;97.29;96065.16;5029785;28;20041;-76
2021/11/11 09:31:53;;;;;;;23.70;12.73;;;;;;;6.42;90.54;96066.94;5023748;28;20069;-76
2021/11/11 09:34:19;;;;;;;21.10;11.93;;;;;;;7.87;84.82;96065.97;5028666;28;20045;-76
2021/11/11 09:36:45;;;;;;;19.17;10.35;;;;;;;8.42;79.83;96064.44;5021368;28;20086;-76
2021/11/11 09:39:10;;;;;;;19.05;9.85;;;;;;;9.12;75.77;96070.06;5029886;28;20049;-76
2021/11/11 09:41:39;;;;;;;18.20;10.00;;;;;;;9.86;75.07;96058.13;5047667;28;20057;-76
2021/11/11 09:44:05;;;;;;;21.38;10.07;;;;;;;10.31;72.10;96053.44;5027991;28;20507;-76
2021/11/11 09:46:31;;;;;;;17.20;10.30;;;;;;;10.30;70.06;96056.31;5049211;28;20071;-77
2021/11/11 09:48:57;;;;;;;19.60;9.98;;;;;;;10.98;69.44;96047.75;5054178;28;20212;-78
2021/11/11 09:51:24;;;;;;;20.02;10.05;;;;;;;11.25;66.44;96044.94;5040138;28;20041;-77
2021/11/11 09:59:02;;;;;;;17.88;10.50;;;;;;;10.68;69.50;96046.59;5037001;28;20029;-76
2021/11/11 10:01:27;;;;;;;18.00;9.90;;;;;;;11.80;67.05;96040.00;5055561;28;20040;-75
2021/11/11 10:03:54;;;;;;;15.80;9.50;;;;;;;11.90;64.34;96045.25;5044214;28;20037;-73
2021/11/11 10:06:24;;;;;;;15.52;9.70;;;;;;;11.88;65.67;96042.09;5052910;28;20041;-85
2021/11/11 10:08:59;;;;;;;16.67;9.82;;;;;;;12.36;65.49;96046.31;5054783;28;20030;-73
2021/11/11 10:11:33;;;;;;;17.48;10.38;;;;;;;13.41;61.29;96044.59;5054926;28;20344;-75
2021/11/11 10:14:14;;;;;;;21.85;10.10;;;;;;;13.62;59.49;96047.09;5045080;28;20052;-75
2021/11/11 10:16:41;;;;;;;17.10;9.88;;;;;;;12.47;62.72;96037.31;5055838;28;20048;-75
2021/11/11 10:19:07;;;;;;;16.75;9.55;;;;;;;13.39;60.53;96040.63;5056085;28;20049;-75
2021/11/11 10:21:44;;;;;;;17.05;10.40;;;;;;;13.39;60.27;96041.44;5028348;28;20057;-75
2021/11/11 10:24:22;;;;;;;16.17;9.98;;;;;;;12.54;59.80;96032.53;5027230;28;20057;-76
2021/11/11 10:26:57;;;;;;;15.05;9.95;;;;;;;13.99;58.74;96038.63;5019936;28;20058;-77
2021/11/11 10:29:47;;;;;;;15.57;9.57;;;;;;;14.41;55.83;96028.44;5019848;28;20510;-75
2021/11/11 10:32:31;;;;;;;16.88;9.55;;;;;;;14.73;55.29;96030.50;5012903;28;20084;-76
2021/11/11 10:35:00;;;;;;;17.13;9.10;;;;;;;14.40;57.57;96020.78;5027473;28;20095;-76
2021/11/11 10:37:30;;;;;;;16.33;9.48;;;;;;;14.44;56.30;96011.19;5025776;28;20310;-76
2021/11/11 10:40:00;;;;;;;19.00;10.07;;;;;;;14.62;54.37;96012.34;5024265;28;20050;-76
2021/11/11 10:42:28;;;;;;;17.55;9.85;;;;;;;15.93;51.46;96012.69;5025444;28;20069;-76
2021/11/11 10:44:56;;;;;;;16.05;9.70;;;;;;;15.94;53.42;96018.78;5027091;28;20055;-76
2021/11/11 10:47:26;;;;;;;21.17;10.40;;;;;;;14.11;56.84;96018.94;5026469;28;20136;-76
2021/11/11 10:49:52;;;;;;;18.67;10.35;;;;;;;14.65;54.48;96017.88;5026553;28;20042;-76
2021/11/11 10:52:34;;;;;;;17.65;10.30;;;;;;;15.31;53.48;96012.78;5026888;28;20058;-76
2021/11/11 10:55:05;;;;;;;15.63;9.82;;;;;;;15.93;51.62;96010.03;5026805;28;20095;-76
2021/11/11 10:57:45;;;;;;;16.10;8.93;;;;;;;15.93;51.08;96011.88;5025188;28;20058;-77
2021/11/11 11:00:11;;;;;;;20.27;9.93;;;;;;;16.31;51.88;96005.69;5033586;28;20100;-76
2021/11/11 11:02:55;;;;;;;16.50;9.20;;;;;;;15.93;51.10;96007.38;5005887;28;20070;-76
2021/11/11 11:05:28;;;;;;;16.20;9.43;;;;;;;16.09;51.78;96005.25;5020997;28;20061;-76
2021/11/11 11:08:00;;;;;;;19.65;9.93;;;;;;;15.71;54.54;96000.00;5023319;28;20064;-77
2021/11/11 11:10:27;;;;;;;15.57;9.45;;;;;;;16.99;49.58;95996.13;5023071;28;20037;-77
2021/11/11 11:12:55;;;;;;;16.20;9.90;;;;;;;15.65;53.68;95995.06;5010512;28;20107;-76
2021/11/11 11:15:45;;;;;;;18.13;10.50;;;;;;;15.18;56.24;95987.00;5032349;28;20051;-77
2021/11/11 11:18:13;;;;;;;17.90;10.18;;;;;;;14.96;54.94;95985.72;5016176;28;20045;-77
2021/11/11 11:20:39;;;;;;;20.15;10.30;;;;;;;15.73;52.30;95987.25;5027247;28;20049;-77
2021/11/11 11:23:40;;;;;;;19.92;10.35;;;;;;;16.47;51.89;95987.59;5029477;28;20092;-77
2021/11/11 11:26:15;;;;;;;17.30;10.60;;;;;;;14.51;54.06;95985.16;5029462;28;20103;-77
2021/11/11 11:28:49;;;;;;;17.13;10.02;;;;;;;15.57;52.08;95984.06;5034183;28;20084;-77
2021/11/11 11:31:29;;;;;;;23.27;12.55;;;;;;;16.24;50.19;95990.13;5016682;28;20103;-77
2021/11/11 11:33:56;;;;;;;22.17;12.43;;;;;;;16.16;51.43;95973.00;5015719;28;20053;-77
2021/11/11 11:36:47;;;;;;;24.88;12.82;;;;;;;16.59;50.65;95977.25;5025057;28;20072;-76
2021/11/11 11:39:22;;;;;;;27.75;12.93;;;;;;;15.94;52.57;95971.00;5017802;28;20041;-77
2021/11/11 11:41:48;;;;;;;23.00;12.90;;;;;;;16.60;51.08;95978.81;5025454;28;20061;-77
2021/11/11 11:44:23;;;;;;;22.50;12.90;;;;;;;16.23;50.17;95972.59;5020980;28;20474;-76
2021/11/11 11:47:00;;;;;;;24.20;12.57;;;;;;;16.09;52.27;95973.38;5042136;28;20076;-77
2021/11/11 11:49:26;;;;;;;20.95;12.43;;;;;;;16.45;51.02;95974.59;5012750;28;20763;-77
2021/11/11 11:51:52;;;;;;;20.40;12.68;;;;;;;16.71;51.01;95966.91;5025403;28;20054;-76